createdAt,value
2017-08-30T00:01:10.518Z,75.90
2017-08-30T00:03:38.115Z,75.90
2017-08-30T00:06:05.754Z,75.90
2017-08-30T00:08:33.932Z,75.40
2017-08-30T00:11:02.512Z,75.40
2017-08-30T00:13:30.129Z,75.30
2017-08-30T00:15:57.744Z,75.00
2017-08-30T00:18:25.368Z,75.40
2017-08-30T00:20:52.963Z,75.70
2017-08-30T00:23:20.584Z,75.70
2017-08-30T00:25:59.922Z,75.60
2017-08-30T00:28:27.595Z,75.80
2017-08-30T00:30:55.305Z,75.80
2017-08-30T00:33:22.986Z,76.00
2017-08-30T00:35:50.613Z,76.10
2017-08-30T00:38:18.280Z,76.00
2017-08-30T00:40:45.909Z,76.00
2017-08-30T00:43:13.519Z,76.20
2017-08-30T00:45:41.133Z,76.50
2017-08-30T00:48:08.932Z,76.50
2017-08-30T00:50:36.537Z,76.60
2017-08-30T00:53:04.152Z,76.70
2017-08-30T00:55:31.790Z,77.00
2017-08-30T00:57:59.428Z,77.50
2017-08-30T01:00:27.038Z,77.60
2017-08-30T01:02:54.654Z,77.80
2017-08-30T01:05:22.284Z,78.10
2017-08-30T01:07:49.902Z,78.30
2017-08-30T01:10:17.521Z,78.40
2017-08-30T01:12:45.137Z,78.80
2017-08-30T01:15:12.775Z,78.70
2017-08-30T01:17:40.446Z,78.50
2017-08-30T01:20:08.065Z,78.70
2017-08-30T01:22:35.675Z,78.90
2017-08-30T01:25:03.351Z,78.80
2017-08-30T01:27:31.930Z,78.80
2017-08-30T01:29:59.537Z,78.90
2017-08-30T01:32:27.142Z,78.70
2017-08-30T01:34:54.762Z,78.80
2017-08-30T01:37:22.363Z,78.90
2017-08-30T01:39:49.988Z,78.80
2017-08-30T01:42:17.631Z,78.70
2017-08-30T01:44:45.744Z,78.60
2017-08-30T01:47:14.158Z,78.60
2017-08-30T01:49:41.756Z,78.60
2017-08-30T01:52:09.433Z,78.60
2017-08-30T01:54:37.037Z,78.50
2017-08-30T01:57:05.857Z,78.60
2017-08-30T01:59:33.480Z,78.50
2017-08-30T02:02:01.096Z,78.40
2017-08-30T02:04:29.442Z,78.10
2017-08-30T02:06:57.078Z,77.80
2017-08-30T02:09:24.726Z,77.80
2017-08-30T02:11:52.345Z,78.00
2017-08-30T02:14:19.950Z,78.30
2017-08-30T02:16:47.576Z,78.10
2017-08-30T02:19:15.199Z,78.30
2017-08-30T02:21:42.802Z,78.00
2017-08-30T02:24:10.434Z,77.50
2017-08-30T02:26:38.061Z,77.90
2017-08-30T02:29:05.708Z,78.20
2017-08-30T02:31:33.310Z,78.50
2017-08-30T02:34:00.925Z,78.30
2017-08-30T02:36:28.545Z,78.20
2017-08-30T02:38:56.157Z,77.90
2017-08-30T02:41:23.750Z,77.90
2017-08-30T02:43:51.398Z,78.20
2017-08-30T02:46:19.030Z,78.40
2017-08-30T02:48:46.628Z,78.20
2017-08-30T02:51:14.239Z,78.30
2017-08-30T02:53:41.870Z,78.10
2017-08-30T02:56:09.517Z,77.70
2017-08-30T02:58:37.154Z,77.80
2017-08-30T03:01:05.635Z,77.90
2017-08-30T03:03:33.262Z,78.20
2017-08-30T03:06:00.864Z,78.20
2017-08-30T03:08:28.500Z,78.20
2017-08-30T03:10:56.113Z,78.50
2017-08-30T03:13:23.754Z,78.50
2017-08-30T03:15:51.410Z,78.80
2017-08-30T03:18:19.016Z,78.90
2017-08-30T03:20:46.620Z,79.00
2017-08-30T03:23:14.331Z,78.90
2017-08-30T03:25:41.936Z,79.10
2017-08-30T03:28:09.567Z,79.30
2017-08-30T03:30:37.187Z,79.30
2017-08-30T03:33:04.880Z,79.60
2017-08-30T03:35:32.489Z,79.70
2017-08-30T03:38:00.096Z,79.90
2017-08-30T03:40:27.726Z,80.20
2017-08-30T03:42:55.343Z,80.30
2017-08-30T03:45:23.006Z,80.60
2017-08-30T03:47:50.632Z,80.70
2017-08-30T03:50:18.242Z,81.00
2017-08-30T03:52:45.847Z,81.00
2017-08-30T03:55:13.466Z,81.20
2017-08-30T03:57:41.105Z,81.10
2017-08-30T04:00:08.783Z,81.30
2017-08-30T04:02:36.393Z,81.50
2017-08-30T04:05:04.080Z,81.60
2017-08-30T04:07:31.675Z,81.70
2017-08-30T04:09:59.903Z,81.90
2017-08-30T04:12:28.340Z,81.90
2017-08-30T04:14:55.973Z,82.10
2017-08-30T04:17:23.570Z,82.10
2017-08-30T04:19:51.163Z,82.00
2017-08-30T04:22:19.716Z,82.00
2017-08-30T04:24:47.351Z,82.10
2017-08-30T04:27:15.037Z,82.10
2017-08-30T04:29:42.653Z,82.20
2017-08-30T04:32:10.279Z,82.30
2017-08-30T04:34:37.936Z,82.30
2017-08-30T04:37:05.581Z,82.40
2017-08-30T04:39:33.184Z,82.50
2017-08-30T04:42:00.831Z,82.60
2017-08-30T04:44:29.174Z,82.60
2017-08-30T04:46:56.823Z,82.60
2017-08-30T04:49:24.559Z,82.50
2017-08-30T04:51:52.196Z,82.10
2017-08-30T04:54:19.807Z,81.70
2017-08-30T04:56:47.410Z,81.40
2017-08-30T04:59:15.645Z,81.00
2017-08-30T05:01:43.251Z,80.80
2017-08-30T05:04:10.856Z,80.70
2017-08-30T05:06:38.487Z,80.60
2017-08-30T05:09:06.084Z,80.50
2017-08-30T05:11:33.680Z,80.60
2017-08-30T05:14:01.292Z,80.30
2017-08-30T05:16:28.924Z,80.60
2017-08-30T05:18:56.545Z,80.40
2017-08-30T05:21:24.162Z,80.20
2017-08-30T05:23:51.780Z,80.30
2017-08-30T05:26:19.411Z,80.10
2017-08-30T05:28:47.046Z,80.00
2017-08-30T05:31:14.661Z,79.70
2017-08-30T05:33:42.292Z,79.70
2017-08-30T05:36:09.887Z,79.60
2017-08-30T05:38:37.515Z,79.50
2017-08-30T05:41:05.130Z,79.60
2017-08-30T05:43:32.741Z,79.10
2017-08-30T05:46:00.328Z,79.00
2017-08-30T05:48:27.984Z,79.20
2017-08-30T05:50:56.484Z,78.80
2017-08-30T05:53:24.188Z,78.70
2017-08-30T05:55:51.810Z,78.30
2017-08-30T05:58:19.423Z,78.30
2017-08-30T06:00:47.031Z,77.90
2017-08-30T06:03:14.705Z,77.80
2017-08-30T06:05:42.337Z,77.80
2017-08-30T06:08:10.411Z,77.60
2017-08-30T06:10:38.019Z,78.00
2017-08-30T06:13:05.647Z,77.80
2017-08-30T06:18:23.511Z,77.30
2017-08-30T06:20:51.129Z,76.70
2017-08-30T06:23:18.779Z,76.80
2017-08-30T06:25:46.376Z,76.80
2017-08-30T06:28:13.978Z,76.50
2017-08-30T06:30:41.598Z,76.00
2017-08-30T06:33:09.243Z,75.10
2017-08-30T06:35:36.885Z,75.70
2017-08-30T06:38:04.514Z,75.10
2017-08-30T06:40:32.131Z,75.30
2017-08-30T06:42:59.783Z,75.60
2017-08-30T06:45:27.430Z,75.00
2017-08-30T06:47:55.053Z,74.80
2017-08-30T06:50:22.736Z,73.70
2017-08-30T06:52:50.356Z,73.20
2017-08-30T06:55:17.983Z,72.30
2017-08-30T06:57:45.580Z,72.90
2017-08-30T07:00:13.216Z,72.30
2017-08-30T07:02:40.837Z,72.10
2017-08-30T07:05:08.431Z,72.00
2017-08-30T07:07:36.023Z,72.10
2017-08-30T07:10:03.648Z,71.50
2017-08-30T07:12:31.277Z,71.50
2017-08-30T07:14:58.907Z,71.70
2017-08-30T07:17:26.527Z,69.80
2017-08-30T07:19:54.128Z,70.10
2017-08-30T07:22:21.762Z,68.80
2017-08-30T07:24:49.407Z,69.80
2017-08-30T07:27:17.036Z,70.40
2017-08-30T07:30:03.416Z,71.40
2017-08-30T07:32:31.054Z,70.70
2017-08-30T07:34:58.668Z,71.20
2017-08-30T07:37:26.279Z,72.60
2017-08-30T07:39:53.899Z,73.20
2017-08-30T07:42:21.511Z,72.80
2017-08-30T07:44:49.390Z,73.20
2017-08-30T07:47:16.995Z,73.00
2017-08-30T07:49:44.629Z,73.10
2017-08-30T07:52:12.277Z,73.40
2017-08-30T07:54:39.913Z,73.20
2017-08-30T07:57:07.563Z,72.90
2017-08-30T07:59:35.298Z,73.20
2017-08-30T08:02:02.894Z,72.60
2017-08-30T08:04:30.493Z,72.00
2017-08-30T08:06:58.099Z,72.00
2017-08-30T08:09:25.765Z,72.40
2017-08-30T08:11:54.248Z,72.10
2017-08-30T08:14:21.888Z,71.10
2017-08-30T08:16:49.519Z,70.10
2017-08-30T08:19:17.122Z,71.00
2017-08-30T08:21:45.048Z,70.40
2017-08-30T08:24:12.654Z,69.80
2017-08-30T08:26:41.058Z,68.70
2017-08-30T08:29:08.670Z,68.50
2017-08-30T08:31:36.309Z,69.30
2017-08-30T08:34:03.937Z,68.40
2017-08-30T08:36:31.893Z,68.50
2017-08-30T08:38:59.537Z,68.80
2017-08-30T08:41:27.142Z,68.40
2017-08-30T08:43:54.768Z,67.60
2017-08-30T08:46:22.431Z,67.60
2017-08-30T08:48:50.050Z,67.20
2017-08-30T08:51:17.657Z,68.70
2017-08-30T08:53:45.899Z,70.00
2017-08-30T08:56:13.656Z,70.80
2017-08-30T08:58:41.265Z,70.50
2017-08-30T09:01:09.219Z,71.60
2017-08-30T09:03:36.861Z,72.70
2017-08-30T09:06:04.473Z,73.30
2017-08-30T09:08:32.088Z,74.20
2017-08-30T09:10:59.720Z,74.10
2017-08-30T09:13:27.481Z,74.80
2017-08-30T09:15:55.165Z,74.00
2017-08-30T09:18:22.824Z,76.10
2017-08-30T09:20:51.020Z,75.40
2017-08-30T09:23:18.633Z,75.00
2017-08-30T09:25:46.259Z,76.50
2017-08-30T09:28:13.869Z,77.30
2017-08-30T09:30:41.726Z,76.50
2017-08-30T09:33:09.362Z,78.50
2017-08-30T09:35:36.990Z,78.10
2017-08-30T09:38:04.593Z,79.10
2017-08-30T09:40:32.200Z,80.60
2017-08-30T09:45:59.155Z,79.90
2017-08-30T09:48:26.789Z,78.50
2017-08-30T09:50:54.415Z,80.00
2017-08-30T09:53:22.095Z,80.90
2017-08-30T09:55:49.705Z,81.30
2017-08-30T09:58:17.313Z,80.30
2017-08-30T10:00:44.913Z,79.00
2017-08-30T10:03:12.538Z,78.60
2017-08-30T10:05:40.894Z,78.10
2017-08-30T10:08:08.518Z,78.10
2017-08-30T10:10:36.116Z,78.30
2017-08-30T10:13:03.740Z,78.60
2017-08-30T10:15:31.380Z,79.10
2017-08-30T10:17:59.017Z,79.70
2017-08-30T10:20:26.641Z,80.00
2017-08-30T10:22:54.244Z,80.90
2017-08-30T10:25:22.015Z,81.10
2017-08-30T10:27:49.610Z,80.90
2017-08-30T10:30:17.237Z,81.60
2017-08-30T10:32:44.851Z,81.20
2017-08-30T10:35:12.465Z,80.60
2017-08-30T10:37:40.122Z,80.60
2017-08-30T10:40:07.736Z,79.90
2017-08-30T10:42:35.341Z,76.40
2017-08-30T10:45:02.996Z,75.00
2017-08-30T10:47:30.603Z,74.90
2017-08-30T10:49:58.208Z,76.30
2017-08-30T10:52:25.833Z,75.70
2017-08-30T10:54:53.437Z,75.90
2017-08-30T10:57:21.102Z,74.10
2017-08-30T10:59:55.675Z,73.90
2017-08-30T11:02:23.357Z,73.10
2017-08-30T11:04:51.001Z,72.90
2017-08-30T11:07:18.619Z,71.00
2017-08-30T11:09:46.220Z,68.90
2017-08-30T11:12:13.827Z,67.80
2017-08-30T11:14:41.430Z,65.60
2017-08-30T11:17:09.308Z,66.20
2017-08-30T11:19:37.049Z,64.30
2017-08-30T11:22:04.654Z,64.10
2017-08-30T11:24:32.255Z,62.20
2017-08-30T11:26:59.849Z,61.20
2017-08-30T11:29:27.446Z,60.30
2017-08-30T11:31:55.072Z,58.40
2017-08-30T11:34:22.691Z,58.90
2017-08-30T11:36:50.294Z,59.00
2017-08-30T11:39:17.894Z,58.60
2017-08-30T11:41:45.492Z,56.10
2017-08-30T11:44:13.096Z,56.60
2017-08-30T11:46:41.663Z,56.60
2017-08-30T11:49:10.403Z,54.90
2017-08-30T11:51:38.072Z,53.30
2017-08-30T11:54:05.718Z,54.50
2017-08-30T11:56:33.341Z,53.60
2017-08-30T11:59:00.999Z,52.80
2017-08-30T12:01:29.194Z,52.70
2017-08-30T12:03:57.416Z,52.80
2017-08-30T12:06:25.000Z,52.60
2017-08-30T12:08:52.588Z,53.20
2017-08-30T12:11:20.321Z,54.80
2017-08-30T12:13:47.975Z,54.10
2017-08-30T12:16:15.599Z,55.50
2017-08-30T12:18:43.222Z,56.50
2017-08-30T12:21:10.815Z,56.50
2017-08-30T12:23:38.433Z,56.50
2017-08-30T12:26:06.055Z,57.40
2017-08-30T12:28:33.649Z,57.00
2017-08-30T12:31:01.240Z,59.00
2017-08-30T12:33:28.903Z,59.40
2017-08-30T12:35:56.535Z,59.50
2017-08-30T12:38:29.723Z,61.00
2017-08-30T12:40:57.318Z,64.50
2017-08-30T12:46:03.850Z,72.90
2017-08-30T12:48:31.466Z,75.00
2017-08-30T12:50:59.128Z,77.20
2017-08-30T12:53:26.737Z,75.00
2017-08-30T12:55:54.349Z,74.00
2017-08-30T12:58:21.980Z,72.30
2017-08-30T13:00:49.618Z,74.40
2017-08-30T13:03:17.221Z,70.80
2017-08-30T13:05:44.842Z,70.90
2017-08-30T13:08:13.209Z,72.30
2017-08-30T13:10:40.824Z,73.80
2017-08-30T13:13:08.441Z,73.20
2017-08-30T13:15:36.057Z,73.90
2017-08-30T13:18:03.674Z,76.00
2017-08-30T13:20:31.273Z,75.70
2017-08-30T13:22:58.872Z,74.80
2017-08-30T13:25:26.504Z,76.30
2017-08-30T13:27:54.116Z,74.10
2017-08-30T13:30:21.740Z,75.70
2017-08-30T13:32:49.380Z,74.30
2017-08-30T13:35:17.040Z,75.10
2017-08-30T13:37:44.667Z,76.00
2017-08-30T13:40:12.294Z,75.70
2017-08-30T13:42:39.983Z,75.60
2017-08-30T13:45:07.595Z,75.30
2017-08-30T13:47:35.205Z,75.00
2017-08-30T13:50:02.848Z,74.80
2017-08-30T13:52:30.460Z,76.10
2017-08-30T13:54:58.089Z,76.00
2017-08-30T13:57:25.730Z,76.10
2017-08-30T13:59:54.164Z,76.40
2017-08-30T14:02:21.798Z,77.20
2017-08-30T14:04:49.408Z,77.50
2017-08-30T14:07:17.025Z,76.40
2017-08-30T14:09:44.638Z,76.10
2017-08-30T14:12:12.259Z,74.60
2017-08-30T14:14:39.880Z,74.10
2017-08-30T14:17:07.504Z,75.40
2017-08-30T14:19:35.108Z,75.80
2017-08-30T14:22:02.726Z,75.30
2017-08-30T14:24:30.347Z,72.90
2017-08-30T14:26:57.972Z,73.90
2017-08-30T14:29:25.698Z,74.20
2017-08-30T14:31:53.311Z,75.10
2017-08-30T14:34:20.957Z,74.90
2017-08-30T14:36:48.587Z,73.60
2017-08-30T14:39:16.231Z,73.70
2017-08-30T14:41:43.865Z,73.90
2017-08-30T14:44:11.456Z,71.70
2017-08-30T14:46:39.090Z,72.50
2017-08-30T14:49:06.716Z,71.80
2017-08-30T14:51:34.399Z,71.80
2017-08-30T14:54:02.034Z,71.70
2017-08-30T14:56:29.672Z,73.10
2017-08-30T14:58:57.290Z,73.60
2017-08-30T15:01:24.919Z,74.70
2017-08-30T15:03:52.549Z,72.80
2017-08-30T15:06:20.156Z,72.50
2017-08-30T15:08:47.789Z,72.40
2017-08-30T15:11:15.448Z,70.70
2017-08-30T15:13:43.052Z,71.90
2017-08-30T15:16:10.688Z,73.30
2017-08-30T15:18:38.389Z,72.90
2017-08-30T15:21:05.994Z,72.80
2017-08-30T15:23:33.616Z,73.10
2017-08-30T15:26:01.260Z,72.90
2017-08-30T15:28:28.880Z,72.80
2017-08-30T15:30:56.514Z,73.40
2017-08-30T15:33:24.891Z,72.10
2017-08-30T15:35:57.913Z,73.00
2017-08-30T15:38:25.533Z,73.50
2017-08-30T15:40:53.144Z,72.60
2017-08-30T15:43:20.759Z,73.40
2017-08-30T15:45:48.387Z,73.70
2017-08-30T15:48:16.076Z,74.30
2017-08-30T15:50:43.719Z,74.20
2017-08-30T15:53:11.342Z,74.40
2017-08-30T15:55:38.985Z,74.20
2017-08-30T15:58:06.603Z,74.30
2017-08-30T16:00:34.221Z,74.50
2017-08-30T16:03:02.662Z,74.50
2017-08-30T16:05:30.304Z,75.00
2017-08-30T16:07:57.944Z,75.90
2017-08-30T16:10:25.566Z,76.30
2017-08-30T16:12:53.309Z,76.70
2017-08-30T16:15:20.929Z,75.90
2017-08-30T16:17:48.568Z,74.80
2017-08-30T16:20:16.193Z,74.70
2017-08-30T16:22:43.800Z,74.30
2017-08-30T16:25:11.394Z,75.80
2017-08-30T16:27:39.024Z,74.60
2017-08-30T16:30:06.645Z,74.30
2017-08-30T16:32:34.247Z,75.00
2017-08-30T16:35:01.888Z,74.30
2017-08-30T16:37:29.514Z,74.50
2017-08-30T16:39:57.129Z,73.80
2017-08-30T16:42:25.853Z,74.70
2017-08-30T16:44:53.479Z,73.50
2017-08-30T16:47:21.095Z,73.90
2017-08-30T16:49:48.680Z,73.80
2017-08-30T16:52:16.308Z,73.60
2017-08-30T16:54:43.927Z,74.70
2017-08-30T16:57:11.604Z,73.80
2017-08-30T16:59:39.245Z,74.20
2017-08-30T17:02:06.922Z,74.80
2017-08-30T17:04:34.549Z,74.80
2017-08-30T17:07:02.213Z,74.60
2017-08-30T17:09:29.844Z,75.00
2017-08-30T17:11:57.471Z,75.00
2017-08-30T17:14:25.127Z,74.70
2017-08-30T17:16:52.742Z,74.50
2017-08-30T17:19:20.365Z,74.70
2017-08-30T17:21:47.979Z,75.20
2017-08-30T17:24:15.605Z,74.60
2017-08-30T17:26:43.218Z,74.30
2017-08-30T17:29:11.568Z,74.40
2017-08-30T17:31:39.181Z,74.40
2017-08-30T17:34:06.794Z,74.60
2017-08-30T17:36:34.413Z,75.70
2017-08-30T17:39:01.995Z,77.70
2017-08-30T17:41:29.598Z,77.10
2017-08-30T17:43:57.197Z,77.30
2017-08-30T17:46:24.837Z,77.20
2017-08-30T17:48:52.466Z,77.80
2017-08-30T17:51:20.082Z,77.60
2017-08-30T17:53:47.768Z,78.00
2017-08-30T17:56:15.359Z,78.30
2017-08-30T17:58:43.661Z,77.60
2017-08-30T18:01:11.280Z,77.20
2017-08-30T18:03:38.876Z,78.20
2017-08-30T18:06:06.486Z,78.20
2017-08-30T18:08:34.152Z,78.80
2017-08-30T18:11:01.757Z,78.90
2017-08-30T18:13:29.369Z,78.30
2017-08-30T18:15:57.056Z,78.90
2017-08-30T18:18:24.717Z,79.60
2017-08-30T18:20:52.323Z,79.50
2017-08-30T18:23:19.944Z,81.50
2017-08-30T18:25:47.573Z,80.30
2017-08-30T18:28:15.187Z,81.20
2017-08-30T18:30:42.803Z,81.50
2017-08-30T18:33:10.427Z,81.90
2017-08-30T18:35:38.070Z,82.00
2017-08-30T18:38:05.684Z,82.80
2017-08-30T18:40:33.311Z,83.90
2017-08-30T18:43:00.920Z,84.30
2017-08-30T18:45:28.545Z,84.60
2017-08-30T18:47:56.177Z,84.70
2017-08-30T18:50:23.804Z,84.90
2017-08-30T18:52:51.421Z,85.00
2017-08-30T18:55:19.082Z,85.40
2017-08-30T18:57:46.687Z,85.70
2017-08-30T19:00:14.312Z,86.10
2017-08-30T19:02:41.932Z,86.80
2017-08-30T19:05:09.551Z,86.90
2017-08-30T19:07:37.144Z,86.30
2017-08-30T19:10:04.877Z,86.00
2017-08-30T19:12:32.560Z,82.80
2017-08-30T19:15:00.175Z,82.10
2017-08-30T19:17:27.808Z,81.30
2017-08-30T19:19:56.000Z,82.90
2017-08-30T19:22:23.630Z,83.50
2017-08-30T19:24:51.264Z,86.70
2017-08-30T19:27:18.879Z,89.70
2017-08-30T19:29:46.520Z,90.80
2017-08-30T19:32:14.173Z,91.00
2017-08-30T19:37:32.100Z,91.70
2017-08-30T19:39:59.722Z,92.00
2017-08-30T19:42:27.334Z,92.40
2017-08-30T19:44:54.965Z,92.50
2017-08-30T19:47:22.557Z,92.70
2017-08-30T19:49:50.179Z,93.00
2017-08-30T19:52:17.797Z,93.00
2017-08-30T19:54:45.432Z,93.30
2017-08-30T19:57:13.042Z,93.40
2017-08-30T19:59:41.337Z,93.40
2017-08-30T20:02:08.960Z,93.50
2017-08-30T20:04:36.563Z,93.50
2017-08-30T20:07:05.135Z,93.50
2017-08-30T20:09:33.531Z,93.60
2017-08-30T20:12:02.031Z,93.60
2017-08-30T20:14:29.626Z,93.50
2017-08-30T20:16:57.295Z,93.50
2017-08-30T20:19:24.934Z,93.40
2017-08-30T20:21:53.490Z,93.50
2017-08-30T20:24:21.118Z,93.70
2017-08-30T20:26:48.755Z,94.00
2017-08-30T20:29:16.363Z,93.90
2017-08-30T20:31:43.966Z,93.90
2017-08-30T20:34:11.558Z,94.10
2017-08-30T20:36:39.176Z,94.00
2017-08-30T20:39:06.792Z,94.00
2017-08-30T20:41:34.713Z,93.60
2017-08-30T20:44:02.319Z,93.80
2017-08-30T20:46:29.926Z,94.00
2017-08-30T20:48:57.538Z,93.90
2017-08-30T20:51:25.140Z,93.90
2017-08-30T20:53:52.755Z,93.90
2017-08-30T20:56:20.357Z,94.00
2017-08-30T20:58:47.994Z,94.00
2017-08-30T21:01:15.640Z,94.10
2017-08-30T21:03:43.260Z,94.10
2017-08-30T21:06:11.733Z,94.10
2017-08-30T21:08:39.376Z,94.20
2017-08-30T21:11:07.012Z,94.10
2017-08-30T21:13:34.766Z,94.10
2017-08-30T21:16:03.559Z,94.10
2017-08-30T21:18:31.453Z,94.30
2017-08-30T21:20:59.255Z,94.50
2017-08-30T21:23:27.430Z,94.60
2017-08-30T21:25:55.397Z,94.50
2017-08-30T21:28:23.230Z,94.40
2017-08-30T21:30:51.057Z,94.20
2017-08-30T21:33:18.921Z,94.40
2017-08-30T21:35:46.818Z,94.60
2017-08-30T21:38:15.775Z,94.60
2017-08-30T21:40:43.524Z,94.60
2017-08-30T21:43:11.247Z,94.50
2017-08-30T21:45:39.092Z,94.80
2017-08-30T21:48:06.882Z,94.70
2017-08-30T21:50:35.260Z,94.70
2017-08-30T21:53:02.997Z,94.60
2017-08-30T21:55:30.773Z,94.50
2017-08-30T21:57:58.575Z,94.60
2017-08-30T22:00:27.971Z,94.60
2017-08-30T22:02:55.687Z,95.00
2017-08-30T22:05:23.430Z,95.00
2017-08-30T22:07:51.412Z,95.20
2017-08-30T22:10:19.127Z,95.10
2017-08-30T22:12:46.806Z,95.40
2017-08-30T22:15:14.532Z,95.30
2017-08-30T22:17:42.129Z,95.20
2017-08-30T22:20:22.080Z,95.30
2017-08-30T22:22:49.680Z,95.40
2017-08-30T22:25:17.320Z,95.10
2017-08-30T22:27:44.952Z,94.80
2017-08-30T22:30:12.576Z,94.90
2017-08-30T22:32:40.246Z,94.60
2017-08-30T22:35:07.908Z,94.60
2017-08-30T22:37:35.593Z,94.90
2017-08-30T22:40:03.356Z,95.20
2017-08-30T22:42:30.997Z,95.10
2017-08-30T22:44:58.700Z,95.20
2017-08-30T22:47:26.382Z,95.10
2017-08-30T22:49:54.010Z,95.10
2017-08-30T22:52:21.700Z,95.00
2017-08-30T22:54:49.322Z,95.20
2017-08-30T22:57:16.955Z,95.10
2017-08-30T22:59:44.928Z,95.10
2017-08-30T23:02:12.570Z,95.20
2017-08-30T23:04:40.198Z,95.10
2017-08-30T23:07:07.836Z,95.20
2017-08-30T23:09:35.461Z,95.40
2017-08-30T23:12:03.110Z,94.80
2017-08-30T23:14:30.761Z,95.00
2017-08-30T23:16:59.399Z,95.10
2017-08-30T23:19:27.029Z,94.80
2017-08-30T23:21:54.671Z,95.00
2017-08-30T23:24:22.288Z,95.00
2017-08-30T23:26:49.951Z,95.10
2017-08-30T23:29:17.593Z,95.20
2017-08-30T23:31:45.464Z,95.20
2017-08-30T23:34:13.132Z,95.20
2017-08-30T23:36:40.743Z,95.40
2017-08-30T23:39:08.360Z,95.50
2017-08-30T23:41:35.971Z,95.70
2017-08-30T23:44:05.718Z,95.80
2017-08-30T23:46:33.952Z,95.70
2017-08-30T23:49:01.623Z,95.70
2017-08-30T23:51:29.323Z,95.70
2017-08-30T23:53:56.962Z,95.80
2017-08-30T23:56:24.591Z,95.90
2017-08-30T23:58:52.263Z,96.00
